Hermann, Missouri
Current Conditions -  °F | °C
As of 6:35 AM on Saturday 20 Dec 2014 (Local Time) from KFYG Reporting Station
Haze Haze  
Wind Chill: 36°   Ceiling: 1700
Heat Index: 36°   Visibility: 5mi
Dew Point: 32°   Wind: 3mph
Humidity: 87%   Direction: 130°SE
Pressure: 30.25"   Gusts: NA
Location:  38.7°N, 91.44°W
Report Text: KFYG 201235Z AUTO 13003KT 5SM BR OVC017 02/00 A3025 RMK AO2
Loading
Personal Weather Stations






























Interactive Weather Map New forecast layout! Learn more

10-Day Weather Forecast

Advertisements
Track Severe Weather on mobile